• Join FlightAware (Why Join?)
  • Login
  • US Flag 
05:55PM EDT


 

Airport Tracker/Info


-or-


 

Live Flight TrackerFlight Track Log ✈ UAL3776 ✈ 22-Jul-2014 ✈ KORD - KROC

Flight Track Log - Related Links

Times and Time Zones

All times are in EDT time to prevent confusion due to time zone crossing. See the UAL3776 flight status page for this flight to view local times or setup timezone preferences in your user account.

Time Position Orientation Groundspeed Altitude Reporting Facility
EDT Latitude Longitude Course Direction KTS MPH feet Rate Location/Type
06:11PM 41.9667 -87.9667 77° East 178 205 2,300  Level Chicago TRACON
06:12PM 42.0167 -87.9667 360° North 246 283 4,900 1,320 Climbing Chicago TRACON
06:13PM 42.0647 -87.9125 40° Northeast 283 326 5,000 1,140 Climbing Chicago Center
06:14PM 42.1292 -87.8350 42° Northeast 289 333 7,200 1,920 Climbing Chicago Center
06:15PM 42.0945 -87.1052 71° East  Level FlightAware Approximate
06:15PM 42.1478 -87.7353 76° East 307 353 9,100  Level Chicago Center
06:16PM 42.1147 -86.9453 77° East  Level FlightAware Approximate
06:16PM 42.1408 -87.6058 94° East 319 367 11,600  Level Chicago Center
06:17PM 42.1344 -87.4814 94° East 328 377 14,000 2,220 Climbing Chicago Center
06:18PM 42.1281 -87.3547 94° East 336 387 16,200 1,440 Climbing Chicago Center
06:19PM 42.1197 -87.2047 94° East 378 435 17,000 720 Climbing Chicago Center
06:20PM 42.1131 -87.0392 93° East 434 499 17,800 1,200 Climbing Chicago Center
06:21PM 42.1186 -86.8953 87° East 438 504 19,500 1,920 Climbing Chicago Center
06:22PM 42.1253 -86.7019 87° East 434 499 21,800 1,920 Climbing Chicago Center
06:23PM 42.1308 -86.5553 87° East 429 494 23,500 1,380 Climbing Chicago Center
06:24PM 42.1353 -86.3950 88° East 429 494 24,700 1,200 Climbing Chicago Center
06:25PM 42.1406 -86.2300 87° East 436 502 26,100 1,440 Climbing Chicago Center
06:26PM 42.1433 -86.0283 89° East 447 514 27,700 1,320 Climbing Chicago Center
06:27PM 42.1414 -85.8733 91° East 448 516 28,900 1,020 Climbing Chicago Center
06:28PM 42.1408 -85.7053 90° East 450 518 29,900 1,020 Climbing Chicago Center
06:29PM 42.1378 -85.4978 91° East 463 533 31,100 1,020 Climbing Chicago Center
06:30PM 42.1364 -85.3247 91° East 465 535 32,100 840 Climbing Chicago Center
06:31PM 42.1356 -85.1453 90° East 480 552 32,900 420 Climbing Chicago Center
06:32PM 42.1328 -84.9675 91° East 480 552 33,000  Climbing Chicago Center
06:33PM 42.1292 -84.7825 91° East 492 566 33,000  Level Chicago Center
06:34PM 42.1250 -84.5547 91° East 508 585 33,000  Level Chicago Center
06:35PM 42.1250 -84.4508 90° East 506 582 33,000  Level Cleveland Center
06:36PM 42.1475 -84.2658 81° East 488 562 33,000  Level Cleveland Center
06:37PM 42.1661 -84.0900 82° East 479 551 33,000  Level Cleveland Center
06:38PM 42.1853 -83.9150 82° East 478 550 33,000  Level Cleveland Center
06:39PM 42.2075 -83.7025 82° East 479 551 33,000  Level Cleveland Center
06:40PM 42.2267 -83.5158 82° East 498 573 33,000  Level Cleveland Center
06:41PM 42.2269 -83.3269 90° East 502 578 33,000  Level Cleveland Center
06:42PM 42.2236 -83.1200 91° East 502 578 33,000  Level Cleveland Center
06:43PM 42.2206 -82.9317 91° East 502 578 33,000 -300 Level Cleveland Center
06:44PM 42.2175 -82.7458 91° East 501 577 32,400 -840 Descending Cleveland Center
06:45PM 42.2136 -82.5625 92° East 494 568 31,300 -720 Descending Cleveland Center
06:46PM 42.2103 -82.3806 91° East 493 567 31,000 -180 Descending Cleveland Center
06:48PM 42.2044 -82.2050 93° East 473 544 31,000  Level Cleveland Center
06:49PM 42.1997 -81.9964 92° East 478 550 31,000  Level Cleveland Center
06:50PM 42.1936 -81.8106 92° East 485 558 31,000  Level Cleveland Center
06:51PM 42.1889 -81.6219 92° East 492 566 31,000 -660 Level Cleveland Center
06:52PM 42.1831 -81.4333 92° East 494 568 29,700 -1,500 Descending Cleveland Center
06:53PM 42.1764 -81.2481 93° East 494 568 28,000 -1,320 Descending Cleveland Center
06:54PM 42.1692 -81.0389 93° East 481 554 27,000 -480 Descending Cleveland Center
06:55PM 42.1639 -80.8719 92° East 452 520 27,000  Level Cleveland Center
06:56PM 42.1594 -80.7000 92° East 451 519 27,000  Level Cleveland Center
06:57PM 42.1961 -80.5322 74° East 462 532 27,000 -360 Level Cleveland Center
06:58PM 42.2358 -80.3661 72° East 462 532 26,300 -780 Descending Cleveland Center
06:59PM 42.2742 -80.2067 72° East 447 514 25,500 -660 Descending Cleveland Center
07:00PM 42.3119 -80.0500 72° East 437 503 25,000 -540 Descending Cleveland Center
07:01PM 42.3469 -79.8986 73° East 425 489 24,500 -1,200 Descending Cleveland Center
07:02PM 42.3925 -79.7031 72° East 453 521 22,600 -1,740 Descending Cleveland Center
07:03PM 42.4317 -79.5331 73° East 470 541 21,000 -1,680 Descending Cleveland Center
07:04PM 42.4728 -79.3558 72° East 456 525 19,200 -1,620 Descending Cleveland Center
07:05PM 42.5319 -79.2194 59° Northeast 427 491 17,700 -1,500 Descending Cleveland Center
07:06PM 42.6114 -79.1050 47° Northeast 419 482 16,100 -1,560 Descending Cleveland Center
07:07PM 42.6878 -78.9950 47° Northeast 405 466 14,500 -1,620 Descending Cleveland Center
07:08PM 42.7628 -78.8878 46° Northeast 395 455 12,900 -1,620 Descending Cleveland Center
07:09PM 42.8356 -78.7814 47° Northeast 386 444 11,200 -1,020 Descending Cleveland Center
07:10PM 42.9069 -78.6783 47° Northeast 375 432 10,900 -840 Descending Cleveland Center
07:11PM 42.9547 -78.5592 61° Northeast 310 357 9,500 -1,440 Descending Cleveland Center
07:12PM 42.9836 -78.4511 70° East 292 336 8,000 -1,500 Descending Cleveland Center
07:13PM 42.9997 -78.3914 70° East 282 325 7,100 -600 Descending Cleveland Center
07:14PM 43.0356 -78.2650 69° East 298 343 7,000 -120 Descending Cleveland Center
07:14PM 43.0408 -78.2450 70° East 293 337 7,000  Level Cleveland Center
07:15PM 43.0703 -78.1442 68° East 311 358 7,000  Level Cleveland Center
07:15PM 43.0731 -78.1356 66° East 305 351 7,000 -1,500 Level Cleveland Center
07:16PM 43.1125 -78.0456 59° Northeast 303 349 5,500 -1,680 Descending Cleveland Center
07:16PM 43.1164 -78.0378 56° Northeast 304 350 5,300 -1,800 Descending Cleveland Center
07:17PM 43.1564 -77.9472 59° Northeast 302 348 3,700 -1,680 Descending Cleveland Center
07:18PM 43.1606 -77.9386 56° Northeast 304 350 3,600 -1,140 Descending Cleveland Center
07:18PM 43.1897 -77.8489 66° East 275 316 2,600 -1,080 Descending Cleveland Center
07:19PM 43.1933 -77.8186 81° East 290 334 2,500 -120 Descending Cleveland Center
07:19PM 43.2067 -77.7458 76° East 276 318 2,500  Level Cleveland Center
07:20PM 43.2103 -77.7161 81° East 282 325 2,500  Level Cleveland Center
07:20PM 43.2058 -77.6617 96° East 188 216 2,500 -420 Level Cleveland Center
07:21PM 43.1725 -77.6439 159° South 118 136 1,800 -600 Descending Cleveland Center
07:22PM 43.1619 -77.6428 176° South 164 189 1,700 -840 Descending Cleveland Center
07:22PM 43.1381 -77.6608 209° Southwest 134 154 1,000 -1,020 Descending Cleveland Center
07:23PM 43.1286 -77.6664 203° Southwest 144 166 700 -840 Descending Cleveland Center